ADDS METAR Data INFO
IDs: Format: Raw Decoded Include TAF

Data at: 0458 UTC 23 May 2017

KUVA 230435Z AUTO 00000KT 10SM OVC046 21/20 A2995 RMK AO2 T02100195
KUVA 230415Z AUTO 00000KT 10SM OVC044 21/20 A2995 RMK AO2 T02100195
KUVA 230355Z AUTO 00000KT 10SM BKN044 21/20 A2994 RMK AO2 T02050195
KUVA 230335Z AUTO 00000KT 10SM CLR 21/20 A2993 RMK AO2 T02060195
KUVA 230315Z AUTO 00000KT 10SM CLR 21/20 A2993 RMK AO2 T02110196
KUVA 230255Z AUTO 00000KT 10SM CLR 21/20 A2993 RMK AO2 T02120196
KUVA 230235Z AUTO 00000KT 10SM CLR 22/20 A2991 RMK AO2 T02150198
KUVA 230215Z AUTO 00000KT 10SM CLR 22/20 A2990 RMK AO2 T02210197
KUVA 230155Z AUTO 00000KT 10SM CLR 22/20 A2988 RMK AO2 T02230197
KUVA 230135Z AUTO 00000KT 10SM CLR 23/20 A2988 RMK AO2 T02310200
KUVA 230115Z AUTO 12004KT 10SM CLR 24/20 A2988 RMK AO2 T02400199
KUVA 230055Z AUTO 09007KT 10SM CLR 25/20 A2988 RMK AO2 T02470201
KUVA 230035Z AUTO 10007KT 10SM SCT070 25/20 A2988 RMK AO2 T02500200
KUVA 230015Z AUTO 11006KT 10SM OVC070 26/20 A2988 RMK AO2 T02570202
KUVA 222355Z AUTO 00000KT 10SM OVC070 26/20 A2989 RMK AO2 LTG DSNT N T02550203 10263 20231
KUVA 222335Z AUTO 09005KT 10SM BKN070 26/20 A2989 RMK AO2 T02570201
KUVA 222315Z AUTO 08005KT 10SM BKN070 26/20 A2989 RMK AO2 T02600203
KUVA 222255Z AUTO 09006KT 10SM SCT026 SCT030 OVC070 26/20 A2989 RMK AO2 T02610204
KUVA 222235Z AUTO 09006KT 10SM SCT023 SCT029 OVC060 26/20 A2989 RMK AO2 T02620204
KUVA 222215Z AUTO 00000KT 10SM SCT024 SCT035 OVC060 26/20 A2990 RMK AO2 T02630202
KUVA 222155Z AUTO 08004KT 10SM BKN024 BKN035 OVC060 26/20 A2991 RMK AO2 T02610201
KUVA 222135Z AUTO 08005KT 10SM SCT024 OVC060 26/20 A2991 RMK AO2 T02610204
KUVA 222115Z AUTO 00000KT 10SM SCT024 OVC060 26/21 A2991 RMK AO2 T02600205
KUVA 222055Z AUTO 00000KT 10SM BKN022 OVC060 26/20 A2992 RMK AO2 T02550203
KUVA 222035Z AUTO 10003KT 10SM OVC022 25/20 A2993 RMK AO2 T02530200
KUVA 222015Z AUTO 10005KT 10SM BKN022 OVC050 25/20 A2994 RMK AO2 T02510200
KUVA 221955Z AUTO 06009KT 10SM BKN020 OVC050 26/20 A2994 RMK AO2 T02550201
KUVA 221935Z AUTO 00000KT 10SM SCT020 OVC050 25/20 A2994 RMK AO2 T02540200
KUVA 221915Z AUTO 05008KT 10SM OVC050 25/20 A2994 RMK AO2 T02520201
KUVA 221855Z AUTO 05008KT 10SM SCT016 OVC050 25/20 A2995 RMK AO2 T02460199
KUVA 221835Z AUTO 04007KT 10SM SCT016 OVC050 24/20 A2996 RMK AO2 T02420197
KUVA 221815Z AUTO 06010KT 10SM SCT014 OVC050 24/20 A2996 RMK AO2 T02370195
KUVA 221755Z AUTO 07010KT 10SM BKN012 OVC050 23/19 A2998 RMK AO2 T02300193 10230 20185
KUVA 221735Z AUTO 06008KT 10SM OVC012 23/19 A2998 RMK AO2 LTG DSNT SE T02250190
KUVA 221715Z AUTO 06010KT 10SM BKN010 OVC050 22/19 A2999 RMK AO2 T02210189
KUVA 221655Z AUTO 06011KT 10SM OVC010 22/19 A2999 RMK AO2 T02170187
KUVA 221635Z AUTO 06011KT 10SM OVC008 22/19 A2999 RMK AO2 T02160189
KUVA 221615Z AUTO 07010KT 10SM OVC008 21/19 A3000 RMK AO2 T02110187
KUVA 221555Z AUTO 08009KT 10SM OVC008 21/19 A3000 RMK AO2 T02100187
KUVA 221535Z AUTO 07010KT 10SM OVC008 21/19 A3000 RMK AO2 T02110188
KUVA 221515Z AUTO 07008KT 10SM OVC008 21/19 A3000 RMK AO2 T02070188
KUVA 221455Z AUTO 09009KT 10SM OVC008 20/19 A3001 RMK AO2 T02040187
KUVA 221435Z AUTO 07007KT 10SM OVC006 20/19 A3001 RMK AO2 T02000185
KUVA 221415Z AUTO 06009KT 10SM OVC006 20/19 A3000 RMK AO2 T01980185
KUVA 221355Z AUTO 06009KT 7SM OVC008 20/19 A3000 RMK AO2 T01970185
KUVA 221335Z AUTO 06008KT 7SM OVC008 20/18 A3000 RMK AO2 T01950183
KUVA 221315Z AUTO 06007KT 7SM OVC008 19/18 A3000 RMK AO2 T01910182
KUVA 221255Z AUTO 07006KT 7SM OVC006 19/18 A3000 RMK AO2 T01870179
KUVA 221235Z AUTO 04007KT 7SM OVC008 19/18 A3000 RMK AO2 T01850176
KUVA 221215Z AUTO 04006KT 7SM OVC008 19/18 A3000 RMK AO2 T01850175
KUVA 221155Z AUTO 00000KT 10SM OVC010 19/18 A3001 RMK AO2 60013 70108 T01850175 10188 20181
KUVA 221135Z AUTO 04004KT 10SM OVC010 18/18 A3000 RMK AO2 T01830175
KUVA 221115Z AUTO 04005KT 10SM OVC010 18/17 A3000 RMK AO2 T01810173
KUVA 221055Z AUTO 00000KT 10SM OVC010 18/17 A3000 RMK AO2 T01810173
KUVA 221035Z AUTO 04005KT 10SM OVC010 18/17 A3001 RMK AO2 T01820173
KUVA 221015Z AUTO 04007KT 10SM OVC010 18/18 A3001 RMK AO2 T01830175
KUVA 220955Z AUTO 03003KT 7SM -RA BKN012 OVC017 19/18 A3001 RMK AO2 P0013 T01850176
KUVA 220935Z AUTO 00000KT 10SM -RA OVC012 19/18 A3002 RMK AO2 T01870176
KUVA 220915Z AUTO 00000KT 10SM OVC012 19/18 A3002 RMK AO2 T01880180
KUVA 220855Z AUTO 00000KT 10SM OVC012 19/18 A3002 RMK AO2 T01870180
KUVA 220835Z AUTO 00000KT 10SM OVC012 19/18 A3003 RMK AO2 T01870180
KUVA 220815Z AUTO 00000KT 10SM OVC012 19/18 A3004 RMK AO2 LTG DSNT E T01860179
KUVA 220755Z AUTO 00000KT 10SM OVC010 19/18 A3004 RMK AO2 LTG DSNT E AND SE T01850180
KUVA 220735Z AUTO 00000KT 10SM -RA SCT008 BKN013 OVC055 19/18 A3005 RMK AO2 LTG DSNT E T01860180
KUVA 220715Z AUTO 00000KT 10SM BKN010 BKN035 OVC090 19/18 A3005 RMK AO2 LTG DSNT SE T01850180
KUVA 220655Z AUTO 00000KT 10SM OVC010 19/18 A3006 RMK AO2 LTG DSNT E T01850180
KUVA 220635Z AUTO 00000KT 7SM BKN010 BKN013 OVC027 19/18 A3006 RMK AO2 LTG DSNT SE T01850178
KUVA 220615Z AUTO 00000KT 10SM SCT010 BKN027 BKN040 18/18 A3006 RMK AO2 T01830176
KUVA 220555Z AUTO 00000KT 10SM CLR 19/18 A3004 RMK AO2 LTG DSNT SE P0001 60065 T01870178 10193 20171 402490171
KUVA 220535Z AUTO 07007KT 10SM CLR 19/18 A3003 RMK AO2 LTG DSNT NE AND SE P0001 T01910181
KUVA 220515Z AUTO 07008G14KT 10SM SCT018 SCT025 SCT032 19/18 A3002 RMK AO2 LTG DSNT SE P0001 T01930183
KUVA 220455Z AUTO 07014G20KT 7SM -RA SCT020 BKN032 BKN039 19/18 A3001 RMK AO2 LTG DSNT S P0033 T01900182
KUVA 220435Z AUTO 10006KT 7SM -RA SCT015 SCT031 SCT036 18/17 A3003 RMK AO2 LTG DSNT E THRU S P0030 T01810174
KUVA 220415Z AUTO 09009G14KT 2 1/2SM +TSRA SCT013 BKN018 OVC033 18/17 A3007 RMK AO2 LTG DSNT E THRU SW P0021 T01750165
KUVA 220355Z AUTO 00000KT 10SM RA SCT035 BKN045 OVC055 17/16 A3009 RMK AO2 LTG DSNT S AND SW P0001 T01730160
KUVA 220335Z AUTO 35007KT 10SM SCT065 BKN070 BKN120 17/16 A3007 RMK AO2 LTG DSNT S AND SW T01720160
KUVA 220315Z AUTO 00000KT 10SM BKN120 17/16 A3006 RMK AO2 LTG DSNT SW T01710158
KUVA 220255Z AUTO 00000KT 10SM SCT110 17/16 A3006 RMK AO2 60030 T01720158
KUVA 220235Z AUTO 00000KT 10SM CLR 17/16 A3005 RMK AO2 T01730160
KUVA 220215Z AUTO 02006KT 10SM SCT015 SCT120 17/16 A3003 RMK AO2 T01740164
KUVA 220155Z AUTO 35008KT 10SM SCT009 BKN015 18/17 A3002 RMK AO2 P0003 T01760166
KUVA 220135Z AUTO 01007KT 10SM BKN009 BKN017 OVC120 18/17 A3003 RMK AO2 P0003 T01770170
KUVA 220115Z AUTO 03008KT 7SM RA SCT014 BKN021 OVC120 18/17 A3000 RMK AO2 LTG DSNT E AND SE P0003 T01770171
KUVA 220055Z AUTO 05010KT 3SM TSRA SCT006 BKN015 OVC029 18/17 A3001 RMK AO2 LTG DSNT NE THRU SW P0027 T01760170
KUVA 220035Z AUTO 16006KT 5SM TSRA SCT006 BKN010 OVC055 18/17 A3004 RMK AO2 LTG DSNT ALQS P0010 T01800173
KUVA 220015Z AUTO 04009KT 7SM TSRA SCT029 BKN047 OVC060 18/17 A3001 RMK AO2 LTG DSNT ALQS P0003 T01810173
KUVA 212355Z AUTO 03008G18KT 10SM -VCTSRA SCT027 BKN050 OVC060 18/17 A3001 RMK AO2 LTG DSNT NE THRU S P0013 60030 T01810171 10228 20180
KUVA 212335Z AUTO 01013G22KT 5SM TSRA SCT024 BKN034 OVC042 18/17 A3000 RMK AO2 LTG DSNT ALQS P0011 T01810170
KUVA 212315Z AUTO 01018G24KT 5SM +TSRA SCT029 OVC037 18/17 A3002 RMK AO2 LTG DSNT ALQS P0007 T01820170
KUVA 212255Z AUTO 36016G23KT 4SM RA SCT029 BKN039 OVC049 19/17 A3002 RMK AO2 LTG DSNT S THRU NW P0010 T01850170
KUVA 212235Z AUTO 36018G24KT 7SM VCTSRA SCT033 SCT040 OVC050 19/18 A3000 RMK AO2 LTG DSNT S AND W P0005 T01900176
KUVA 212215Z AUTO 35016G21KT 7SM RA SCT027 BKN041 OVC050 20/18 A2998 RMK AO2 LTG DSNT S THRU NW P0002 T01950182
KUVA 212155Z AUTO 35014KT 10SM -RA SCT027 BKN034 OVC044 20/19 A2999 RMK AO2 LTG DSNT S AND W P0002 T02000185
KUVA 212135Z AUTO 04011G16KT 10SM VCTSRA SCT021 SCT029 BKN036 20/19 A2997 RMK AO2 LTG DSNT SW THRU N P0001 T02000185
KUVA 212115Z AUTO 04012G18KT 10SM -RA SCT025 SCT037 BKN050 21/19 A2998 RMK AO2 LTG DSNT NW P0001 T02050186
KUVA 212055Z AUTO 03011KT 10SM -RA SCT025 BKN037 OVC049 21/19 A2997 RMK AO2 LTG DSNT ALQS P0002 60005 T02070192
KUVA 212035Z AUTO 06006G15KT 10SM -RA SCT023 SCT030 BKN039 21/19 A3002 RMK AO2 LTG DSNT W AND NW P0001 T02130193
KUVA 212015Z AUTO 04012G20KT 10SM -RA SCT030 SCT035 BKN044 22/20 A2997 RMK AO2 LTG DSNT ALQS P0001 T02170199
KUVA 211955Z AUTO 04011KT 10SM -DZ SCT100 22/20 A2999 RMK AO2 LTG DSNT NE THRU SW T02200200
KUVA 211935Z AUTO 06009KT 10SM SCT100 22/20 A3002 RMK AO2 LTG DSNT ALQS T02200201
KUVA 211915Z AUTO 06006KT 10SM VCTS SCT110 22/20 A3003 RMK AO2 LTG DSNT ALQS T02180200
KUVA 211855Z AUTO 05010KT 10SM -VCTSRA SCT029 SCT050 SCT060 22/20 A3002 RMK AO2 LTG DSNT ALQS P0003 T02180202
KUVA 211835Z AUTO 05009KT 7SM TSRA SCT032 SCT047 BKN090 22/20 A3003 RMK AO2 LTG DSNT ALQS P0002 T02210200
KUVA 211815Z AUTO 09007KT 10SM -TSRA SCT023 SCT039 SCT050 22/20 A3005 RMK AO2 LTG DSNT ALQS P0001 T02210199
KUVA 211755Z AUTO 06009KT 10SM -VCTSRA SCT020 SCT028 BKN100 23/20 A3004 RMK AO2 LTG DSNT SW T02290196 10249 20223
KUVA 211735Z AUTO 07010KT 10SM BKN020 24/20 A3004 RMK AO2 LTG DSNT NW T02350195
KUVA 211715Z AUTO 08011G20KT 10SM SCT020 24/20 A3004 RMK AO2 LTG DSNT S THRU NW T02360195


Page loaded:  04:58 UTC  |   09:58 PM Pacific  |   10:58 PM Mountain  |   11:58 PM Central  |   12:58 AM Eastern

 

ADVISORIES

FORECASTS

FORECASTS

OBSERVATIONS

USER TOOLS

ABOUT US